Nippon Maru II — JFMC — position and weather

sailwx.info

Track history (hours):
 
Tides and Currents Weather Stations Pressure Air Temp Water Temp Dewpoint Dewpoint Depression Visibility Wind Speed Wind Dir Waves Ship Positions

Nippon Maru II (Japan)

Build in 1984. Trains merchant marine cadets for Japan's National Institute for Sea Training.

Ship's website: http://www.kohkun.go.jp/en/ships/index.html

Last reported at 2020-Sep-26 07:30 UTC. Time now 2020-Sep-26 07:49 UTC.
Position N 34°41' E 135°12'.

Length 110.1 m; beam 13.8 m; draft 110.09 m.

Type: Other ship. MMSI: 431498000.

Date/timePositionNaut miles runAvg speedWind from/ knotsBaromVisibWave heightAir tempDewpointWater temp
2020-Sep-26 07:30N 34°41' E 135°12'0 0.0
2020-Sep-26 07:00N 34°41' E 135°12'0 0.0
2020-Sep-26 06:30N 34°41' E 135°12'0 0.0
2020-Sep-26 05:30N 34°41' E 135°12'0 0.0
2020-Sep-26 00:24N 34°41' E 135°12'0 0.0
2020-Sep-25 23:30N 34°41' E 135°12'0 0.0
2020-Sep-25 20:24N 34°41' E 135°12'0 0.0
2020-Sep-25 19:30N 34°41' E 135°12'0 0.0
2020-Sep-25 14:30N 34°41' E 135°12'0 0.0
2020-Sep-25 14:00N 34°41' E 135°12'0 0.0
2020-Sep-25 13:30N 34°41' E 135°12'0 0.0
2020-Sep-25 08:30N 34°41' E 135°12'0 0.0
2020-Sep-25 07:30N 34°41' E 135°12'0 0.0
2020-Sep-25 07:00N 34°41' E 135°12'0 0.0
2020-Sep-25 06:00N 34°41' E 135°12'0 0.0
2020-Sep-25 04:00N 34°41' E 135°12'0 0.0
2020-Sep-25 00:18N 34°41' E 135°12'0 0.0
2020-Sep-24 16:54N 34°41' E 135°12'0 0.0
2020-Sep-24 16:00N 34°41' E 135°12'0 0.0
2020-Sep-24 15:30N 34°41' E 135°12'0 0.0
2020-Sep-24 14:00N 34°41' E 135°12'0 0.0
2020-Sep-24 07:30N 34°41' E 135°12'0 0.0
2020-Sep-24 06:30N 34°41' E 135°12'0 0.0
2020-Sep-24 05:30N 34°41' E 135°12'0 0.0
2020-Sep-24 03:00N 34°41' E 135°12'0 0.0
2020-Sep-24 02:30N 34°41' E 135°12'0 0.0
2020-Sep-24 01:54N 34°41' E 135°12'4 0.9
2020-Sep-23 21:29N 34°37' E 135°13'0 0.0
2020-Sep-23 19:59N 34°37' E 135°13'0 0.0
2020-Sep-23 19:23N 34°37' E 135°13'0 0.1
2020-Sep-23 18:59N 34°37' E 135°13'0 0.0
2020-Sep-23 14:59N 34°37' E 135°13'0 0.0
2020-Sep-23 13:59N 34°37' E 135°13'0 0.0
2020-Sep-23 11:59N 34°37' E 135°13'0 0.0
2020-Sep-23 10:59N 34°37' E 135°13'0 0.0
2020-Sep-23 10:29N 34°37' E 135°13'24 2.9
2020-Sep-23 02:00N 34°15' E 134°60'8 2.6
2020-Sep-22 22:52N 34°10' E 135°08'0 0.0
2020-Sep-22 16:28N 34°10' E 135°08'0 0.0
2020-Sep-22 15:58N 34°10' E 135°08'0 0.0
2020-Sep-22 15:28N 34°10' E 135°08'0 0.0
2020-Sep-22 11:58N 34°10' E 135°08'0 0.0
2020-Sep-22 10:58N 34°10' E 135°08'0 0.0
2020-Sep-22 09:55N 34°10' E 135°08'0 0.0
2020-Sep-22 09:22N 34°10' E 135°08'  
Track history (hours):
 
Tides and Currents Weather Stations Pressure Air Temp Water Temp Dewpoint Dewpoint Depression Visibility Wind Speed Wind Dir Waves Ship Positions

Nippon Maru II (Japan)

Build in 1984. Trains merchant marine cadets for Japan's National Institute for Sea Training.

Ship's website: http://www.kohkun.go.jp/en/ships/index.html

Last reported at 2020-Sep-26 07:30 UTC. Time now 2020-Sep-26 07:49 UTC.
Position N 34°41' E 135°12'.

Length 110.1 m; beam 13.8 m; draft 110.09 m.

Type: Other ship. MMSI: 431498000.

Date/timePositionNaut miles runAvg speedWind from/ knotsBaromVisibWave heightAir tempDewpointWater temp
2020-Sep-26 07:30N 34°41' E 135°12'0 0.0
2020-Sep-26 07:00N 34°41' E 135°12'0 0.0
2020-Sep-26 06:30N 34°41' E 135°12'0 0.0
2020-Sep-26 05:30N 34°41' E 135°12'0 0.0
2020-Sep-26 00:24N 34°41' E 135°12'0 0.0
2020-Sep-25 23:30N 34°41' E 135°12'0 0.0
2020-Sep-25 20:24N 34°41' E 135°12'0 0.0
2020-Sep-25 19:30N 34°41' E 135°12'0 0.0
2020-Sep-25 14:30N 34°41' E 135°12'0 0.0
2020-Sep-25 14:00N 34°41' E 135°12'0 0.0
2020-Sep-25 13:30N 34°41' E 135°12'0 0.0
2020-Sep-25 08:30N 34°41' E 135°12'0 0.0
2020-Sep-25 07:30N 34°41' E 135°12'0 0.0
2020-Sep-25 07:00N 34°41' E 135°12'0 0.0
2020-Sep-25 06:00N 34°41' E 135°12'0 0.0
2020-Sep-25 04:00N 34°41' E 135°12'0 0.0
2020-Sep-25 00:18N 34°41' E 135°12'0 0.0
2020-Sep-24 16:54N 34°41' E 135°12'0 0.0
2020-Sep-24 16:00N 34°41' E 135°12'0 0.0
2020-Sep-24 15:30N 34°41' E 135°12'0 0.0
2020-Sep-24 14:00N 34°41' E 135°12'0 0.0
2020-Sep-24 07:30N 34°41' E 135°12'0 0.0
2020-Sep-24 06:30N 34°41' E 135°12'0 0.0
2020-Sep-24 05:30N 34°41' E 135°12'0 0.0
2020-Sep-24 03:00N 34°41' E 135°12'0 0.0
2020-Sep-24 02:30N 34°41' E 135°12'0 0.0
2020-Sep-24 01:54N 34°41' E 135°12'4 0.9
2020-Sep-23 21:29N 34°37' E 135°13'0 0.0
2020-Sep-23 19:59N 34°37' E 135°13'0 0.0
2020-Sep-23 19:23N 34°37' E 135°13'0 0.1
2020-Sep-23 18:59N 34°37' E 135°13'0 0.0
2020-Sep-23 14:59N 34°37' E 135°13'0 0.0
2020-Sep-23 13:59N 34°37' E 135°13'0 0.0
2020-Sep-23 11:59N 34°37' E 135°13'0 0.0
2020-Sep-23 10:59N 34°37' E 135°13'0 0.0
2020-Sep-23 10:29N 34°37' E 135°13'24 2.9
2020-Sep-23 02:00N 34°15' E 134°60'8 2.6
2020-Sep-22 22:52N 34°10' E 135°08'0 0.0
2020-Sep-22 16:28N 34°10' E 135°08'0 0.0
2020-Sep-22 15:58N 34°10' E 135°08'0 0.0
2020-Sep-22 15:28N 34°10' E 135°08'0 0.0
2020-Sep-22 11:58N 34°10' E 135°08'0 0.0
2020-Sep-22 10:58N 34°10' E 135°08'0 0.0
2020-Sep-22 09:55N 34°10' E 135°08'0 0.0
2020-Sep-22 09:22N 34°10' E 135°08'  

Dump ship's entire track history